createdAt,value
2023-01-05T05:00:40.324Z,98.40
2023-01-05T05:01:39.585Z,98.40
2023-01-05T05:02:39.505Z,98.40
2023-01-05T05:03:39.489Z,98.40
2023-01-05T05:04:39.383Z,98.50
2023-01-05T05:05:39.411Z,98.50
2023-01-05T05:06:39.429Z,98.50
2023-01-05T05:07:39.407Z,98.61
2023-01-05T05:08:39.348Z,98.40
2023-01-05T05:09:39.360Z,98.40
2023-01-05T05:10:39.323Z,98.40
2023-01-05T05:11:39.322Z,98.40
2023-01-05T05:12:39.343Z,98.40
2023-01-05T05:13:46.330Z,98.50
2023-01-05T05:14:42.327Z,98.50
2023-01-05T05:15:39.325Z,98.50
2023-01-05T05:16:39.245Z,98.50
2023-01-05T05:17:39.253Z,98.61
2023-01-05T05:18:39.856Z,98.61
2023-01-05T05:19:39.219Z,98.71
2023-01-05T05:20:39.202Z,98.61
2023-01-05T05:21:39.208Z,98.61
2023-01-05T05:22:39.172Z,98.61
2023-01-05T05:23:39.185Z,98.61
2023-01-05T05:24:39.234Z,98.50
2023-01-05T05:25:39.167Z,98.50
2023-01-05T05:26:39.121Z,98.50
2023-01-05T05:27:39.121Z,98.50
2023-01-05T05:28:39.103Z,98.50
2023-01-05T05:29:39.129Z,98.61
2023-01-05T05:30:39.119Z,98.61
2023-01-05T05:31:39.113Z,98.91
2023-01-05T05:32:44.018Z,99.43
2023-01-05T05:33:40.051Z,99.73
2023-01-05T05:34:39.012Z,99.99
2023-01-05T05:35:39.020Z,99.99
2023-01-05T05:36:39.224Z,99.99
2023-01-05T05:37:39.000Z,99.99
2023-01-05T05:38:38.960Z,99.99
2023-01-05T05:39:38.986Z,99.99
2023-01-05T05:40:38.928Z,99.99
2023-01-05T05:41:38.974Z,99.99
2023-01-05T05:42:38.987Z,99.99
2023-01-05T05:43:38.963Z,99.99
2023-01-05T05:44:38.878Z,99.99
2023-01-05T05:45:38.906Z,99.99
2023-01-05T05:46:38.887Z,99.99
2023-01-05T05:47:38.866Z,99.99
2023-01-05T05:48:38.873Z,99.99
2023-01-05T05:49:38.862Z,99.99
2023-01-05T05:50:38.905Z,99.99
2023-01-05T05:51:38.815Z,99.99
2023-01-05T05:52:38.816Z,99.99
2023-01-05T05:53:38.803Z,99.99
2023-01-05T05:54:38.755Z,99.99
2023-01-05T05:55:38.767Z,99.99
2023-01-05T05:56:38.824Z,99.99
2023-01-05T05:57:38.751Z,99.99
2023-01-05T05:58:38.705Z,99.99
2023-01-05T05:59:38.730Z,99.99
2023-01-05T06:00:38.683Z,99.99
2023-01-05T06:01:38.754Z,99.99
2023-01-05T06:02:38.830Z,99.99
2023-01-05T06:03:38.735Z,99.99
2023-01-05T06:04:38.641Z,99.99
2023-01-05T06:05:38.683Z,99.99
2023-01-05T06:06:38.615Z,99.99
2023-01-05T06:07:38.612Z,99.99
2023-01-05T06:08:38.805Z,99.99
2023-01-05T06:09:38.604Z,99.99
2023-01-05T06:10:38.566Z,99.99
2023-01-05T06:11:38.568Z,99.99
2023-01-05T06:12:38.531Z,99.99
2023-01-05T06:13:38.550Z,99.99
2023-01-05T06:14:38.539Z,99.99
2023-01-05T06:15:38.599Z,99.99
2023-01-05T06:16:38.554Z,99.99
2023-01-05T06:17:38.516Z,99.99
2023-01-05T06:18:38.466Z,99.99
2023-01-05T06:19:38.469Z,99.99
2023-01-05T06:20:38.430Z,99.99
2023-01-05T06:21:38.557Z,99.99
2023-01-05T06:22:38.462Z,99.99
2023-01-05T06:23:38.487Z,99.99
2023-01-05T06:24:38.391Z,99.99
2023-01-05T06:25:38.543Z,99.99
2023-01-05T06:26:38.369Z,99.99
2023-01-05T06:27:38.358Z,99.99
2023-01-05T06:28:38.345Z,99.99
2023-01-05T06:29:38.339Z,99.99
2023-01-05T06:30:38.303Z,99.99
2023-01-05T06:31:38.410Z,99.99
2023-01-05T06:32:38.279Z,99.99
2023-01-05T06:33:38.268Z,99.99
2023-01-05T06:34:38.265Z,99.99
2023-01-05T06:35:38.244Z,99.99
2023-01-05T06:36:38.261Z,99.99
2023-01-05T06:37:38.281Z,99.99
2023-01-05T06:38:38.227Z,99.99
2023-01-05T06:39:38.200Z,99.99
2023-01-05T06:40:38.215Z,99.99
2023-01-05T06:41:38.164Z,99.99
2023-01-05T06:42:38.163Z,99.99
2023-01-05T06:43:38.239Z,99.99
2023-01-05T06:44:38.162Z,99.99
2023-01-05T06:45:38.187Z,99.99
2023-01-05T06:46:38.134Z,99.99
2023-01-05T06:47:38.137Z,99.99
2023-01-05T06:48:38.101Z,99.99
2023-01-05T06:49:38.361Z,99.99
2023-01-05T06:50:38.069Z,99.99
2023-01-05T06:51:38.055Z,99.99
2023-01-05T06:52:38.051Z,99.99
2023-01-05T06:53:38.020Z,99.99
2023-01-05T06:54:38.022Z,99.99
2023-01-05T06:55:38.061Z,99.99
2023-01-05T06:56:38.000Z,99.99
2023-01-05T06:57:37.968Z,99.99
2023-01-05T06:58:37.980Z,99.99
2023-01-05T06:59:37.946Z,99.99
2023-01-05T07:00:38.016Z,99.99
2023-01-05T07:01:38.184Z,99.99
2023-01-05T07:02:37.930Z,99.99
2023-01-05T07:03:37.904Z,99.99
2023-01-05T07:04:37.896Z,99.99
2023-01-05T07:05:37.860Z,99.99
2023-01-05T07:06:37.875Z,99.99
2023-01-05T07:07:37.916Z,99.99
2023-01-05T07:08:37.841Z,99.99
2023-01-05T07:09:37.814Z,99.99
2023-01-05T07:10:37.813Z,99.99
2023-01-05T07:11:37.789Z,99.99
2023-01-05T07:12:37.816Z,99.99
2023-01-05T07:13:37.794Z,99.99
2023-01-05T07:14:37.776Z,99.99
2023-01-05T07:15:37.829Z,99.99
2023-01-05T07:16:37.829Z,99.99
2023-01-05T07:17:37.711Z,99.99
2023-01-05T07:18:37.736Z,99.99
2023-01-05T07:19:37.708Z,99.99
2023-01-05T07:20:37.685Z,99.99
2023-01-05T07:21:37.735Z,99.99
2023-01-05T07:22:37.683Z,99.99
2023-01-05T07:23:37.660Z,99.99
2023-01-05T07:24:37.655Z,99.99
2023-01-05T07:25:37.623Z,99.99
2023-01-05T07:26:37.636Z,99.99
2023-01-05T07:27:37.651Z,99.99
2023-01-05T07:28:37.594Z,99.99
2023-01-05T07:29:37.581Z,99.99
2023-01-05T07:30:37.575Z,99.99
2023-01-05T07:31:37.599Z,99.99
2023-01-05T07:32:37.552Z,99.99
2023-01-05T07:33:39.590Z,99.99
2023-01-05T07:34:37.525Z,99.99
2023-01-05T07:35:37.495Z,99.99
2023-01-05T07:36:37.499Z,99.99
2023-01-05T07:37:37.534Z,99.99
2023-01-05T07:38:37.473Z,99.99
2023-01-05T07:39:37.431Z,99.99
2023-01-05T07:40:37.463Z,99.99
2023-01-05T07:41:37.412Z,99.99
2023-01-05T07:42:37.433Z,99.99
2023-01-05T07:43:37.470Z,99.99
2023-01-05T07:44:37.419Z,99.99
2023-01-05T07:45:37.413Z,99.99
2023-01-05T07:46:37.375Z,99.99
2023-01-05T07:47:37.340Z,99.99
2023-01-05T07:48:37.337Z,99.99
2023-01-05T07:49:37.433Z,99.99
2023-01-05T07:50:37.319Z,99.99
2023-01-05T07:51:37.303Z,99.99
2023-01-05T07:52:37.297Z,99.99
2023-01-05T07:53:43.842Z,99.99
2023-01-05T07:54:38.361Z,99.99
2023-01-05T07:55:37.253Z,99.99
2023-01-05T07:56:37.248Z,99.99
2023-01-05T07:57:37.209Z,99.99
2023-01-05T07:58:37.237Z,99.99
2023-01-05T07:59:37.186Z,99.99
2023-01-05T08:00:37.867Z,99.99
2023-01-05T08:01:37.311Z,99.99
2023-01-05T08:02:37.205Z,99.99
2023-01-05T08:03:37.152Z,99.99
2023-01-05T08:04:37.180Z,99.99
2023-01-05T08:05:37.115Z,99.99
2023-01-05T08:06:37.195Z,99.99
2023-01-05T08:07:37.096Z,99.99
2023-01-05T08:08:37.109Z,99.99
2023-01-05T08:09:37.064Z,99.99
2023-01-05T08:10:37.074Z,99.99
2023-01-05T08:11:37.045Z,99.99
2023-01-05T08:12:37.123Z,99.99
2023-01-05T08:13:37.034Z,99.99
2023-01-05T08:14:37.014Z,99.99
2023-01-05T08:15:36.983Z,99.99
2023-01-05T08:16:37.017Z,99.99
2023-01-05T08:17:36.965Z,99.99
2023-01-05T08:18:37.006Z,99.99
2023-01-05T08:19:36.948Z,99.99
2023-01-05T08:20:36.996Z,99.99
2023-01-05T08:21:36.919Z,99.99
2023-01-05T08:22:36.936Z,99.99
2023-01-05T08:23:36.892Z,99.99
2023-01-05T08:24:36.901Z,99.99
2023-01-05T08:25:36.921Z,99.99
2023-01-05T08:26:36.905Z,99.99
2023-01-05T08:27:36.835Z,99.99
2023-01-05T08:28:36.879Z,99.99
2023-01-05T08:29:36.807Z,99.99
2023-01-05T08:30:36.820Z,99.99
2023-01-05T08:31:36.878Z,99.99
2023-01-05T08:32:36.799Z,99.99
2023-01-05T08:33:36.786Z,99.99
2023-01-05T08:34:36.776Z,99.99
2023-01-05T08:35:36.729Z,99.99
2023-01-05T08:36:36.759Z,99.99
2023-01-05T08:37:36.714Z,99.99
2023-01-05T08:38:36.911Z,99.99
2023-01-05T08:39:36.712Z,99.99
2023-01-05T08:40:36.707Z,99.99
2023-01-05T08:41:36.659Z,99.99
2023-01-05T08:42:36.675Z,99.99
2023-01-05T08:43:36.642Z,99.99
2023-01-05T08:44:36.690Z,99.99
2023-01-05T08:45:36.629Z,99.99
2023-01-05T08:46:36.631Z,99.99
2023-01-05T08:47:36.577Z,99.99
2023-01-05T08:48:36.587Z,99.99
2023-01-05T08:49:36.552Z,99.99
2023-01-05T08:50:36.595Z,99.99
2023-01-05T08:51:36.535Z,99.99
2023-01-05T08:52:36.534Z,99.99
2023-01-05T08:53:36.531Z,99.99
2023-01-05T08:54:36.510Z,99.99
2023-01-05T08:55:36.474Z,99.99
2023-01-05T08:56:38.661Z,99.99
2023-01-05T08:57:36.457Z,99.99
2023-01-05T08:58:36.587Z,99.99
2023-01-05T08:59:36.433Z,99.99
2023-01-05T09:00:36.435Z,99.99
2023-01-05T09:01:36.454Z,99.99
2023-01-05T09:02:36.653Z,99.99
2023-01-05T09:03:36.435Z,99.99
2023-01-05T09:04:36.983Z,99.99
2023-01-05T09:05:36.337Z,99.99
2023-01-05T09:06:36.363Z,99.99
2023-01-05T09:07:36.326Z,99.99
2023-01-05T09:08:36.336Z,99.99
2023-01-05T09:09:36.283Z,99.99
2023-01-05T09:10:36.360Z,99.99
2023-01-05T09:11:36.266Z,99.99
2023-01-05T09:12:36.272Z,99.99
2023-01-05T09:13:36.243Z,99.99
2023-01-05T09:14:36.263Z,99.99
2023-01-05T09:15:36.228Z,99.99
2023-01-05T09:17:06.354Z,99.99
2023-01-05T09:17:37.233Z,99.99
2023-01-05T09:18:36.367Z,99.99
2023-01-05T09:19:36.160Z,99.99
2023-01-05T09:20:39.620Z,99.99
2023-01-05T09:21:36.147Z,99.99
2023-01-05T09:22:36.321Z,99.99
2023-01-05T09:23:36.131Z,98.65
2023-01-05T09:24:36.119Z,98.24
2023-01-05T09:25:36.083Z,99.11
2023-01-05T09:26:36.092Z,99.43
2023-01-05T09:27:36.085Z,99.52
2023-01-05T09:28:36.159Z,97.49
2023-01-05T09:29:36.034Z,96.36
2023-01-05T09:30:41.858Z,95.54
2023-01-05T09:31:37.143Z,95.64
2023-01-05T09:32:35.998Z,95.70
2023-01-05T09:33:35.969Z,93.25
2023-01-05T09:34:36.028Z,93.15
2023-01-05T09:35:35.953Z,91.72
2023-01-05T09:36:35.967Z,91.31
2023-01-05T09:37:35.931Z,90.90
2023-01-05T09:38:35.927Z,90.19
2023-01-05T09:39:35.942Z,88.96
2023-01-05T09:40:35.925Z,88.76
2023-01-05T09:41:35.869Z,88.65
2023-01-05T09:42:35.887Z,88.55
2023-01-05T09:43:35.844Z,88.76
2023-01-05T09:44:35.866Z,87.79
2023-01-05T09:45:36.403Z,87.29
2023-01-05T09:46:35.863Z,86.57
2023-01-05T09:47:35.796Z,86.88
2023-01-05T09:48:35.798Z,86.47
2023-01-05T09:49:35.765Z,86.16
2023-01-05T09:50:35.784Z,85.55
2023-01-05T09:51:35.808Z,85.55
2023-01-05T09:52:38.283Z,84.94
2023-01-05T09:53:35.719Z,85.55
2023-01-05T09:54:42.818Z,84.63
2023-01-05T09:55:35.695Z,85.04
2023-01-05T09:57:38.391Z,84.83
2023-01-05T09:58:35.675Z,83.81
2023-01-05T09:59:35.662Z,84.59
2023-01-05T10:00:35.727Z,84.18
2023-01-05T10:01:35.677Z,82.96
2023-01-05T10:02:35.672Z,83.57
2023-01-05T10:04:02.988Z,83.47
2023-01-05T10:04:39.893Z,83.87
2023-01-05T10:05:35.778Z,83.47
2023-01-05T10:06:35.551Z,82.55
2023-01-05T10:07:35.567Z,82.45
2023-01-05T10:08:35.541Z,82.24
2023-01-05T10:09:35.559Z,82.75
2023-01-05T10:10:35.556Z,82.55
2023-01-05T10:11:35.519Z,82.96
2023-01-05T10:12:35.524Z,82.86
2023-01-05T10:13:35.459Z,82.55
2023-01-05T10:14:35.462Z,82.45
2023-01-05T10:15:35.609Z,81.53
2023-01-05T10:16:35.469Z,81.73
2023-01-05T10:17:42.334Z,81.63
2023-01-05T10:18:36.401Z,81.43
2023-01-05T10:19:35.353Z,81.18
2023-01-05T10:20:35.374Z,80.88
2023-01-05T10:21:35.371Z,81.09
2023-01-05T10:22:38.639Z,81.39
2023-01-05T10:23:35.309Z,81.49
2023-01-05T10:24:35.303Z,80.78
2023-01-05T10:25:35.327Z,80.57
2023-01-05T10:26:51.323Z,80.68
2023-01-05T10:27:36.254Z,80.47
2023-01-05T10:28:35.281Z,81.09
2023-01-05T10:29:35.225Z,81.18
2023-01-05T10:30:35.896Z,81.09
2023-01-05T10:31:35.261Z,80.57
2023-01-05T10:32:49.044Z,80.33
2023-01-05T10:33:41.552Z,80.23
2023-01-05T10:34:36.191Z,80.54
2023-01-05T10:35:59.561Z,79.41
2023-01-05T10:37:36.120Z,79.25
2023-01-05T10:38:35.127Z,80.27
2023-01-05T10:39:35.098Z,80.23
2023-01-05T10:40:35.114Z,78.43
2023-01-05T10:41:35.082Z,78.84
2023-01-05T10:42:35.115Z,79.75
2023-01-05T10:43:35.044Z,79.25
2023-01-05T10:44:35.060Z,78.53
2023-01-05T10:45:35.671Z,78.64
2023-01-05T10:46:40.207Z,78.94
2023-01-05T10:47:36.049Z,79.41
2023-01-05T10:48:34.967Z,79.52
2023-01-05T10:49:34.968Z,79.21
2023-01-05T10:50:34.956Z,78.80
2023-01-05T10:51:35.146Z,78.70
2023-01-05T10:52:34.937Z,78.80
2023-01-05T10:53:34.928Z,78.91
2023-01-05T10:54:34.900Z,78.50
2023-01-05T10:55:34.895Z,78.09
2023-01-05T10:56:34.887Z,78.30
2023-01-05T10:57:36.568Z,78.09
2023-01-05T10:58:34.845Z,77.92
2023-01-05T10:59:34.894Z,77.89
2023-01-05T11:00:34.815Z,77.48
2023-01-05T11:01:34.912Z,77.17
2023-01-05T11:02:34.917Z,76.76
2023-01-05T11:04:14.849Z,77.78
2023-01-05T11:04:36.065Z,77.68
2023-01-05T11:05:34.898Z,78.09
2023-01-05T11:06:34.734Z,78.39
2023-01-05T11:07:34.734Z,77.48
2023-01-05T11:08:34.703Z,77.27
2023-01-05T11:09:34.898Z,77.17
2023-01-05T11:10:34.686Z,76.66
2023-01-05T11:11:34.691Z,77.07
2023-01-05T11:12:34.656Z,77.58
2023-01-05T11:13:41.677Z,77.37
2023-01-05T11:14:34.648Z,77.17
2023-01-05T11:15:34.726Z,77.27
2023-01-05T11:16:35.333Z,77.07
2023-01-05T11:17:34.674Z,77.48
2023-01-05T11:18:34.577Z,77.07
2023-01-05T11:19:34.574Z,77.17
2023-01-05T11:20:34.546Z,76.66
2023-01-05T11:21:34.592Z,76.76
2023-01-05T11:22:34.517Z,77.27
2023-01-05T11:23:34.517Z,77.27
2023-01-05T11:24:34.501Z,77.17
2023-01-05T11:25:34.495Z,77.58
2023-01-05T11:26:42.047Z,77.51
2023-01-05T11:27:34.450Z,77.82
2023-01-05T11:28:34.420Z,77.72
2023-01-05T11:29:34.440Z,77.62
2023-01-05T11:30:34.424Z,77.98
2023-01-05T11:31:34.489Z,77.82
2023-01-05T11:32:34.429Z,77.00
2023-01-05T11:33:34.388Z,77.51
2023-01-05T11:34:34.338Z,77.41
2023-01-05T11:35:34.407Z,77.62
2023-01-05T11:36:34.343Z,78.02
2023-01-05T11:37:34.367Z,78.12
2023-01-05T11:38:34.442Z,78.33
2023-01-05T11:39:34.309Z,78.84
2023-01-05T11:40:34.383Z,78.02
2023-01-05T11:41:34.349Z,77.62
2023-01-05T11:42:34.258Z,77.41
2023-01-05T11:43:34.294Z,77.62
2023-01-05T11:44:34.387Z,77.82
2023-01-05T11:45:34.237Z,77.68
2023-01-05T11:46:34.243Z,77.37
2023-01-05T11:47:39.477Z,77.17
2023-01-05T11:48:35.163Z,76.87
2023-01-05T11:49:34.177Z,76.97
2023-01-05T11:50:34.257Z,77.17
2023-01-05T11:51:34.172Z,76.76
2023-01-05T11:52:34.111Z,76.76
2023-01-05T11:53:34.377Z,77.17
2023-01-05T11:54:34.091Z,77.48
2023-01-05T11:55:34.156Z,77.27
2023-01-05T11:56:34.137Z,77.27
2023-01-05T11:57:34.058Z,77.27
2023-01-05T11:58:34.028Z,77.17
2023-01-05T11:59:34.031Z,76.97
2023-01-05T12:00:34.051Z,77.07
2023-01-05T12:01:34.175Z,77.17
2023-01-05T12:02:34.123Z,76.97
2023-01-05T12:03:34.058Z,77.27
2023-01-05T12:04:34.013Z,76.93
2023-01-05T12:05:34.183Z,75.95
2023-01-05T12:06:33.913Z,75.54
2023-01-05T12:07:33.953Z,75.13
2023-01-05T12:08:33.903Z,75.23
2023-01-05T12:09:35.438Z,75.54
2023-01-05T12:10:33.894Z,75.54
2023-01-05T12:11:33.938Z,74.93
2023-01-05T12:12:33.855Z,75.13
2023-01-05T12:13:33.878Z,75.34
2023-01-05T12:14:33.836Z,75.10
2023-01-05T12:15:33.816Z,74.99
2023-01-05T12:16:34.077Z,74.90
2023-01-05T12:17:33.848Z,74.49
2023-01-05T12:18:33.753Z,74.18
2023-01-05T12:19:33.834Z,74.62
2023-01-05T12:20:33.765Z,73.81
2023-01-05T12:21:33.763Z,74.01
2023-01-05T12:22:33.721Z,73.91
2023-01-05T12:23:33.774Z,74.01
2023-01-05T12:24:33.676Z,73.91
2023-01-05T12:25:33.675Z,73.81
2023-01-05T12:26:33.663Z,73.81
2023-01-05T12:27:33.670Z,73.81
2023-01-05T12:28:40.901Z,73.50
2023-01-05T12:34:00.311Z,73.97
2023-01-05T12:34:01.281Z,74.08
2023-01-05T12:34:34.540Z,73.88
2023-01-05T12:35:33.734Z,73.47
2023-01-05T12:36:33.530Z,73.67
2023-01-05T12:37:33.530Z,73.47
2023-01-05T12:38:33.513Z,73.19
2023-01-05T12:39:33.505Z,73.19
2023-01-05T12:40:33.506Z,73.30
2023-01-05T12:41:33.474Z,73.19
2023-01-05T12:42:33.446Z,73.40
2023-01-05T12:43:33.467Z,73.60
2023-01-05T12:44:33.431Z,73.10
2023-01-05T12:45:33.457Z,72.69
2023-01-05T12:46:33.490Z,72.79
2023-01-05T12:47:33.476Z,72.58
2023-01-05T12:48:33.374Z,72.89
2023-01-05T12:49:33.380Z,73.10
2023-01-05T12:50:33.406Z,73.30
2023-01-05T12:51:33.344Z,73.30
2023-01-05T12:52:33.326Z,73.81
2023-01-05T12:53:33.316Z,74.11
2023-01-05T12:54:33.344Z,74.01
2023-01-05T12:55:33.286Z,74.21
2023-01-05T12:56:33.598Z,74.21
2023-01-05T12:57:33.304Z,74.32
2023-01-05T12:58:33.215Z,74.62
2023-01-05T12:59:33.239Z,74.93
2023-01-05T13:00:33.249Z,75.23
2023-01-05T13:01:33.264Z,75.03
2023-01-05T13:02:33.549Z,75.27
2023-01-05T13:03:33.195Z,75.16
2023-01-05T13:04:38.869Z,75.27
2023-01-05T13:05:34.143Z,75.57
2023-01-05T13:06:33.134Z,75.68
2023-01-05T13:07:33.108Z,75.88
2023-01-05T13:08:33.137Z,76.19
2023-01-05T13:09:33.086Z,76.19
2023-01-05T13:10:33.106Z,76.09
2023-01-05T13:11:33.111Z,76.29
2023-01-05T13:12:33.142Z,76.59
2023-01-05T13:13:33.029Z,76.59
2023-01-05T13:14:33.003Z,76.90
2023-01-05T13:15:37.570Z,76.90
2023-01-05T13:16:34.046Z,76.70
2023-01-05T13:17:33.061Z,76.70
2023-01-05T13:18:32.951Z,76.90
2023-01-05T13:19:33.072Z,76.59
2023-01-05T13:20:33.076Z,76.59
2023-01-05T13:21:32.910Z,76.70
2023-01-05T13:22:32.892Z,76.50
2023-01-05T13:23:32.939Z,76.53
2023-01-05T13:24:32.911Z,76.73
2023-01-05T13:25:33.014Z,76.84
2023-01-05T13:26:38.069Z,77.04
2023-01-05T13:27:33.902Z,77.25
2023-01-05T13:28:33.514Z,77.34
2023-01-05T13:29:32.908Z,77.55
2023-01-05T13:30:32.868Z,77.65
2023-01-05T13:31:32.865Z,77.65
2023-01-05T13:32:32.792Z,77.86
2023-01-05T13:33:32.822Z,77.86
2023-01-05T13:34:32.732Z,77.86
2023-01-05T13:35:32.753Z,78.16
2023-01-05T13:36:32.705Z,78.06
2023-01-05T13:37:32.718Z,78.06
2023-01-05T13:38:32.806Z,77.65
2023-01-05T13:39:32.705Z,77.75
2023-01-05T13:40:32.656Z,77.86
2023-01-05T13:41:32.751Z,78.06
2023-01-05T13:42:32.652Z,78.27
2023-01-05T13:43:32.715Z,78.06
2023-01-05T13:44:32.724Z,78.16
2023-01-05T13:45:32.623Z,78.06
2023-01-05T13:46:32.790Z,78.27
2023-01-05T13:47:35.283Z,78.27
2023-01-05T13:48:44.153Z,78.47
2023-01-05T13:49:33.783Z,78.47
2023-01-05T13:50:32.545Z,78.57
2023-01-05T13:51:32.559Z,78.67
2023-01-05T13:52:32.499Z,78.27
2023-01-05T13:53:32.542Z,78.27
2023-01-05T13:54:43.255Z,78.37
2023-01-05T13:55:33.602Z,78.27
2023-01-05T13:56:32.462Z,78.37
2023-01-05T13:57:32.462Z,78.06
2023-01-05T13:58:32.480Z,78.16
2023-01-05T13:59:42.442Z,77.96
2023-01-05T14:00:33.429Z,78.16
2023-01-05T14:01:32.446Z,78.06
2023-01-05T14:02:32.385Z,78.16
2023-01-05T14:03:32.484Z,78.37
2023-01-05T14:04:33.146Z,78.47
2023-01-05T14:05:32.360Z,78.57
2023-01-05T14:06:32.327Z,78.67
2023-01-05T14:07:32.388Z,78.47
2023-01-05T14:08:32.333Z,78.47
2023-01-05T14:09:32.553Z,78.67
2023-01-05T14:10:32.262Z,78.57
2023-01-05T14:11:32.304Z,78.37
2023-01-05T14:12:32.292Z,78.47
2023-01-05T14:13:32.250Z,78.27
2023-01-05T14:14:32.223Z,78.37
2023-01-05T14:15:32.273Z,78.98
2023-01-05T14:16:32.277Z,78.37
2023-01-05T14:17:32.204Z,77.96
2023-01-05T14:18:32.190Z,78.06
2023-01-05T14:19:32.214Z,78.06
2023-01-05T14:20:32.203Z,77.65
2023-01-05T14:21:32.527Z,77.96
2023-01-05T14:22:32.126Z,78.27
2023-01-05T14:23:32.136Z,78.16
2023-01-05T14:24:32.087Z,78.20
2023-01-05T14:25:32.120Z,78.50
2023-01-05T14:26:32.057Z,78.50
2023-01-05T14:27:32.119Z,78.50
2023-01-05T14:28:32.028Z,78.61
2023-01-05T14:29:32.206Z,78.50
2023-01-05T14:30:32.092Z,78.81
2023-01-05T14:31:32.032Z,79.02
2023-01-05T14:32:31.988Z,79.22
2023-01-05T14:33:32.030Z,79.22
2023-01-05T14:34:31.955Z,79.43
2023-01-05T14:35:32.175Z,79.43
2023-01-05T14:36:31.935Z,79.63
2023-01-05T14:37:31.933Z,79.93
2023-01-05T14:38:32.012Z,80.04
2023-01-05T14:39:31.983Z,80.04
2023-01-05T14:40:31.903Z,80.14
2023-01-05T14:41:31.951Z,80.24
2023-01-05T14:42:31.881Z,80.34
2023-01-05T14:43:31.944Z,80.14
2023-01-05T14:44:31.867Z,83.00
2023-01-05T14:45:31.901Z,80.75
2023-01-05T14:46:31.819Z,80.10
2023-01-05T14:47:31.940Z,80.04
2023-01-05T14:48:31.773Z,79.93
2023-01-05T14:49:31.956Z,79.83
2023-01-05T14:50:31.761Z,79.83
2023-01-05T14:51:31.782Z,79.83
2023-01-05T14:52:31.731Z,79.93
2023-01-05T14:53:32.469Z,79.93
2023-01-05T14:54:31.702Z,79.93
2023-01-05T14:55:39.215Z,79.93
2023-01-05T14:56:32.693Z,80.14
2023-01-05T14:57:31.696Z,79.93
2023-01-05T14:58:31.680Z,79.83
2023-01-05T14:59:31.867Z,79.77
2023-01-05T15:00:31.636Z,80.07
2023-01-05T15:01:31.774Z,80.28
2023-01-05T15:02:31.621Z,80.07
2023-01-05T15:03:32.281Z,80.38
2023-01-05T15:04:31.629Z,80.69
2023-01-05T15:05:36.853Z,80.69
2023-01-05T15:06:31.568Z,80.89
2023-01-05T15:07:31.527Z,81.10
2023-01-05T15:08:33.325Z,81.20
2023-01-05T15:09:31.517Z,80.89
2023-01-05T15:10:31.518Z,80.79
2023-01-05T15:11:31.552Z,80.99
2023-01-05T15:12:31.488Z,81.20
2023-01-05T15:13:31.441Z,81.65
2023-01-05T15:14:31.452Z,81.65
2023-01-05T15:15:31.451Z,81.95
2023-01-05T15:16:31.422Z,81.54
2023-01-05T15:17:31.706Z,81.44
2023-01-05T15:18:31.492Z,81.54
2023-01-05T15:19:31.389Z,81.74
2023-01-05T15:20:31.386Z,81.54
2023-01-05T15:21:31.345Z,81.54
2023-01-05T15:22:38.080Z,81.54
2023-01-05T15:23:32.343Z,81.54
2023-01-05T15:24:31.305Z,81.65
2023-01-05T15:25:31.358Z,81.44
2023-01-05T15:26:31.304Z,81.95
2023-01-05T15:27:31.300Z,81.74
2023-01-05T15:28:31.265Z,81.74
2023-01-05T15:29:31.238Z,81.74
2023-01-05T15:30:31.266Z,81.85
2023-01-05T15:31:31.282Z,81.85
2023-01-05T15:32:31.260Z,81.95
2023-01-05T15:33:31.202Z,82.05
2023-01-05T15:34:31.208Z,82.05
2023-01-05T15:35:31.418Z,82.29
2023-01-05T15:36:31.242Z,82.40
2023-01-05T15:37:31.190Z,82.50
2023-01-05T15:38:31.128Z,82.29
2023-01-05T15:39:31.172Z,82.40
2023-01-05T15:40:31.232Z,82.60
2023-01-05T15:41:31.489Z,82.81
2023-01-05T15:42:31.135Z,82.91
2023-01-05T15:43:31.051Z,83.01
2023-01-05T15:44:31.282Z,83.22
2023-01-05T15:45:31.145Z,82.91
2023-01-05T15:46:31.211Z,82.91
2023-01-05T15:47:31.166Z,83.11
2023-01-05T15:48:31.062Z,83.32
2023-01-05T15:49:30.960Z,83.42
2023-01-05T15:50:31.268Z,83.42
2023-01-05T15:51:31.011Z,83.62
2023-01-05T15:52:30.950Z,83.83
2023-01-05T15:53:30.948Z,83.73
2023-01-05T15:54:31.053Z,84.03
2023-01-05T15:55:30.917Z,83.97
2023-01-05T15:56:31.162Z,84.07
2023-01-05T15:57:30.963Z,84.17
2023-01-05T15:58:31.063Z,84.28
2023-01-05T15:59:30.926Z,84.48
2023-01-05T16:00:30.896Z,84.69
2023-01-05T16:01:30.897Z,84.69
2023-01-05T16:02:31.190Z,84.79
2023-01-05T16:03:30.847Z,84.79
2023-01-05T16:04:30.831Z,84.89
2023-01-05T16:05:30.836Z,84.99
2023-01-05T16:06:30.810Z,85.10
2023-01-05T16:07:30.807Z,85.10
2023-01-05T16:08:31.243Z,85.20
2023-01-05T16:09:30.761Z,85.40
2023-01-05T16:10:30.820Z,85.50
2023-01-05T16:11:30.964Z,85.61
2023-01-05T16:12:30.789Z,85.61
2023-01-05T16:13:30.750Z,85.71
2023-01-05T16:14:30.933Z,85.81
2023-01-05T16:15:30.695Z,85.91
2023-01-05T16:16:51.056Z,86.02
2023-01-05T16:17:31.773Z,86.12
2023-01-05T16:18:30.754Z,86.12
2023-01-05T16:19:40.129Z,86.63
2023-01-05T16:20:32.322Z,86.53
2023-01-05T16:21:30.560Z,86.63
2023-01-05T16:22:30.577Z,86.73
2023-01-05T16:23:30.566Z,86.83
2023-01-05T16:24:30.554Z,86.94
2023-01-05T16:25:30.738Z,87.04
2023-01-05T16:26:30.563Z,87.29
2023-01-05T16:27:30.500Z,87.38
2023-01-05T16:28:30.497Z,87.49
2023-01-05T16:29:30.459Z,87.70
2023-01-05T16:30:31.228Z,87.79
2023-01-05T16:31:31.126Z,88.00
2023-01-05T16:32:30.436Z,88.10
2023-01-05T16:33:30.419Z,88.20
2023-01-05T16:34:30.472Z,88.20
2023-01-05T16:35:30.416Z,88.41
2023-01-05T16:36:30.489Z,88.62
2023-01-05T16:37:30.428Z,88.20
2023-01-05T16:38:30.393Z,88.51
2023-01-05T16:39:30.364Z,88.62
2023-01-05T16:40:30.394Z,88.51
2023-01-05T16:41:30.323Z,88.82
2023-01-05T16:42:30.406Z,88.82
2023-01-05T16:43:30.368Z,88.92
2023-01-05T16:44:30.295Z,89.03
2023-01-05T16:45:30.323Z,88.92
2023-01-05T16:46:30.520Z,89.03
2023-01-05T16:47:30.259Z,89.12
2023-01-05T16:48:30.290Z,89.23
2023-01-05T16:49:30.223Z,89.33
2023-01-05T16:50:30.247Z,89.12
2023-01-05T16:51:30.247Z,89.33
2023-01-05T16:52:38.998Z,89.43
2023-01-05T16:53:31.238Z,89.64
2023-01-05T16:54:30.185Z,89.53
2023-01-05T16:55:30.168Z,89.84
2023-01-05T16:56:30.135Z,89.53
2023-01-05T16:57:30.235Z,89.74
2023-01-05T16:58:30.357Z,89.94
2023-01-05T16:59:30.077Z,89.94
2023-01-05T17:00:30.097Z,90.15
2023-01-05T17:01:30.127Z,90.15
2023-01-05T17:02:30.089Z,90.45
2023-01-05T17:03:30.107Z,90.60
2023-01-05T17:04:30.190Z,90.60
2023-01-05T17:05:30.027Z,90.81
2023-01-05T17:06:30.091Z,90.56
2023-01-05T17:07:29.984Z,90.56
2023-01-05T17:08:30.030Z,90.45
2023-01-05T17:09:29.961Z,90.50
2023-01-05T17:10:30.028Z,90.60
2023-01-05T17:11:30.074Z,90.50
2023-01-05T17:12:29.964Z,90.25
2023-01-05T17:14:24.375Z,90.45
2023-01-05T17:15:24.368Z,90.15
2023-01-05T17:16:24.350Z,90.25
2023-01-05T17:17:24.322Z,90.25
2023-01-05T17:18:24.381Z,90.36
2023-01-05T17:19:24.273Z,90.36
2023-01-05T17:20:24.275Z,90.56
2023-01-05T17:21:24.631Z,90.66
2023-01-05T17:22:24.246Z,90.77
2023-01-05T17:23:24.209Z,90.91
2023-01-05T17:24:24.257Z,91.01
2023-01-05T17:25:24.184Z,91.31
2023-01-05T17:26:24.187Z,91.31
2023-01-05T17:27:24.211Z,91.22
2023-01-05T17:28:24.224Z,91.83
2023-01-05T17:29:24.172Z,92.03
2023-01-05T17:30:24.159Z,92.24
2023-01-05T17:31:24.113Z,92.24
2023-01-05T17:32:24.120Z,92.55
2023-01-05T17:33:24.281Z,92.96
2023-01-05T17:34:24.108Z,92.75
2023-01-05T17:35:24.099Z,92.85
2023-01-05T17:36:24.107Z,93.16
2023-01-05T17:37:24.520Z,93.10
2023-01-05T17:38:24.080Z,92.59
2023-01-05T17:39:24.024Z,92.49
2023-01-05T17:40:24.054Z,92.38
2023-01-05T17:41:23.981Z,92.49
2023-01-05T17:42:24.004Z,92.59
2023-01-05T17:43:24.003Z,93.00
2023-01-05T17:44:23.970Z,93.10
2023-01-05T17:45:23.954Z,93.30
2023-01-05T17:46:23.953Z,93.20
2023-01-05T17:47:24.134Z,93.41
2023-01-05T17:48:23.912Z,93.62
2023-01-05T17:49:23.885Z,93.82
2023-01-05T17:50:23.895Z,93.92
2023-01-05T17:51:23.901Z,93.96
2023-01-05T17:52:23.923Z,94.17
2023-01-05T17:53:23.857Z,94.17
2023-01-05T17:54:23.849Z,94.27
2023-01-05T17:55:23.870Z,94.27
2023-01-05T17:56:23.835Z,94.27
2023-01-05T17:57:23.795Z,94.37
2023-01-05T17:58:26.492Z,94.58